Time;durP1;ratioP1;P1;durP2;ratioP2;P2;SDS_P1;SDS_P2;PMS_P1;PMS_P2;Temp;Humidity;BMP_temperature;BMP_pressure;BME280_temperature;BME280_humidity;BME280_pressure;Samples;Min_cycle;Max_cycle;Signal;HPM_P1;HPM_P2
2022/01/16 00:00:18;;;;;;;37.63;18.55;;;;;;;;;;2221422;60;21076;-76
2022/01/16 00:05:31;;;;;;;31.00;16.80;;;;;;;;;;2221659;60;21032;-76
2022/01/16 00:07:58;;;;;;;32.17;16.77;;;;;;;;;;2221344;60;21071;-76
2022/01/16 00:10:26;;;;;;;37.05;17.75;;;;;;;;;;2441162;57;22198;-76
2022/01/16 00:12:58;;;;;;;30.73;16.50;;;;;;;;;;2222722;60;21140;-76
2022/01/16 00:15:26;;;;;;;33.70;15.80;;;;;;;;;;2221496;60;21144;-76
2022/01/16 00:17:56;;;;;;;35.35;16.98;;;;;;;;;;2442300;57;21551;-76
2022/01/16 00:20:24;;;;;;;40.15;18.60;;;;;;;;;;2441823;57;21136;-76
2022/01/16 00:25:27;;;;;;;30.30;19.73;;;;;;;;;;2308264;57;28517;-76
2022/01/16 00:27:54;;;;;;;33.22;17.58;;;;;;;;;;2319219;58;21604;-76
2022/01/16 00:30:21;;;;;;;34.42;16.50;;;;;;;;;;2336133;57;21129;-76
2022/01/16 00:32:49;;;;;;;36.65;16.80;;;;;;;;;;2346297;57;21029;-76
2022/01/16 00:35:16;;;;;;;28.02;14.65;;;;;;;;;;2346095;57;21046;-76
2022/01/16 00:37:43;;;;;;;29.80;15.85;;;;;;;;;;2345689;57;21041;-76
2022/01/16 00:40:12;;;;;;;29.80;15.35;;;;;;;;;;2346212;57;21618;-76
2022/01/16 00:42:39;;;;;;;31.10;15.05;;;;;;;;;;2345931;57;21041;-76
2022/01/16 00:45:07;;;;;;;27.45;15.02;;;;;;;;;;2346087;57;21054;-76
2022/01/16 00:47:34;;;;;;;30.67;15.85;;;;;;;;;;2346649;57;21045;-76
2022/01/16 00:50:01;;;;;;;29.90;14.87;;;;;;;;;;2345522;57;21144;-76
2022/01/16 00:52:28;;;;;;;30.55;16.25;;;;;;;;;;2346634;57;21137;-76
2022/01/16 00:54:58;;;;;;;32.33;14.57;;;;;;;;;;2346800;57;21037;-76
2022/01/16 00:57:27;;;;;;;31.65;16.10;;;;;;;;;;2346774;57;21192;-76
2022/01/16 00:59:54;;;;;;;28.70;14.90;;;;;;;;;;2345971;57;21054;-76
2022/01/16 01:02:23;;;;;;;29.55;15.52;;;;;;;;;;2594007;53;21065;-76
2022/01/16 01:04:50;;;;;;;28.70;15.85;;;;;;;;;;2346286;57;21125;-76
2022/01/16 01:07:17;;;;;;;30.33;15.18;;;;;;;;;;2346779;57;21137;-76
2022/01/16 01:09:45;;;;;;;30.00;16.45;;;;;;;;;;2345352;57;21504;-77
2022/01/16 01:12:24;;;;;;;28.73;14.48;;;;;;;;;;2346097;57;21061;-76
2022/01/16 01:15:05;;;;;;;29.58;15.10;;;;;;;;;;2346580;57;21034;-76
2022/01/16 01:17:36;;;;;;;28.62;15.40;;;;;;;;;;2345916;57;21049;-76
2022/01/16 01:20:04;;;;;;;32.78;16.30;;;;;;;;;;2344908;57;21062;-76
2022/01/16 01:22:31;;;;;;;26.10;15.43;;;;;;;;;;2345618;57;21137;-76
2022/01/16 01:24:58;;;;;;;29.77;16.40;;;;;;;;;;2345951;57;21038;-76
2022/01/16 01:27:29;;;;;;;30.58;15.75;;;;;;;;;;2346354;57;21607;-76
2022/01/16 01:30:01;;;;;;;26.75;15.90;;;;;;;;;;2345753;57;21136;-76
2022/01/16 01:32:29;;;;;;;27.90;15.13;;;;;;;;;;2346840;57;21061;-76
2022/01/16 01:34:56;;;;;;;30.50;14.90;;;;;;;;;;2346285;57;21041;-76
2022/01/16 01:37:24;;;;;;;27.62;15.23;;;;;;;;;;2592112;53;21026;-76
2022/01/16 01:39:51;;;;;;;28.58;16.73;;;;;;;;;;2344682;57;21116;-76
2022/01/16 01:42:18;;;;;;;28.48;15.63;;;;;;;;;;2345102;57;21113;-76
2022/01/16 01:53:02;;;;;;;35.60;16.95;;;;;;;;;;2345135;57;21033;-76
2022/01/16 01:55:29;;;;;;;28.20;15.15;;;;;;;;;;2592584;53;21030;-76
2022/01/16 01:57:57;;;;;;;29.25;16.80;;;;;;;;;;2345156;57;21133;-76
2022/01/16 02:00:24;;;;;;;26.92;14.75;;;;;;;;;;2344976;57;21053;-76
2022/01/16 02:03:10;;;;;;;30.67;16.17;;;;;;;;;;2345419;57;21041;-76
2022/01/16 02:05:37;;;;;;;33.03;16.60;;;;;;;;;;2345161;57;21041;-76
2022/01/16 02:08:05;;;;;;;30.02;16.30;;;;;;;;;;2345613;57;21101;-76
2022/01/16 02:10:33;;;;;;;32.83;16.15;;;;;;;;;;2344423;57;21097;-76
2022/01/16 02:13:05;;;;;;;33.35;16.92;;;;;;;;;;2345087;57;21093;-76
2022/01/16 02:27:57;;;;;;;36.35;18.02;;;;;;;;;;2345304;57;21046;-76
2022/01/16 02:36:08;;;;;;;35.83;17.10;;;;;;;;;;2516102;53;21034;-75
2022/01/16 02:38:35;;;;;;;36.35;17.45;;;;;;;;;;2592789;53;21061;-76
2022/01/16 02:41:04;;;;;;;41.28;19.58;;;;;;;;;;2344255;57;21042;-75
2022/01/16 02:43:34;;;;;;;37.35;18.30;;;;;;;;;;2345069;57;21212;-76
2022/01/16 02:48:49;;;;;;;34.13;17.98;;;;;;;;;;2344921;57;21591;-76
2022/01/16 02:51:17;;;;;;;34.13;17.60;;;;;;;;;;2345091;57;21062;-76
2022/01/16 02:53:44;;;;;;;35.58;17.98;;;;;;;;;;2345312;57;21058;-76
2022/01/16 02:56:12;;;;;;;34.78;18.75;;;;;;;;;;2345700;57;21057;-76
2022/01/16 02:58:39;;;;;;;41.33;20.10;;;;;;;;;;2344532;57;21125;-76
2022/01/16 03:01:06;;;;;;;36.35;19.20;;;;;;;;;;2345214;57;21077;-76
2022/01/16 03:03:33;;;;;;;39.15;20.23;;;;;;;;;;2345402;57;21555;-76
2022/01/16 03:06:01;;;;;;;44.03;20.98;;;;;;;;;;2345135;57;21184;-76
2022/01/16 03:08:28;;;;;;;41.42;18.25;;;;;;;;;;2345781;57;21524;-76
2022/01/16 03:11:13;;;;;;;40.75;21.17;;;;;;;;;;2345441;57;21128;-76
2022/01/16 03:13:41;;;;;;;40.28;19.30;;;;;;;;;;2345162;57;21061;-76
2022/01/16 03:16:09;;;;;;;44.42;20.88;;;;;;;;;;2345847;57;21109;-76
2022/01/16 03:24:08;;;;;;;49.85;23.00;;;;;;;;;;2344974;57;21053;-76
2022/01/16 03:26:36;;;;;;;44.40;21.60;;;;;;;;;;2345161;57;21105;-76
2022/01/16 03:29:03;;;;;;;52.20;23.83;;;;;;;;;;2345443;57;21053;-76
2022/01/16 03:31:31;;;;;;;54.47;23.75;;;;;;;;;;2344793;57;21129;-76
2022/01/16 03:33:58;;;;;;;45.30;21.30;;;;;;;;;;2344734;57;21645;-76
2022/01/16 03:36:25;;;;;;;51.30;23.73;;;;;;;;;;2344970;57;21062;-76
2022/01/16 03:38:52;;;;;;;45.42;22.00;;;;;;;;;;2344658;57;21050;-76
2022/01/16 03:41:19;;;;;;;50.38;23.08;;;;;;;;;;2345133;57;21026;-76
2022/01/16 03:43:47;;;;;;;54.58;22.98;;;;;;;;;;2344872;57;21026;-77
2022/01/16 03:46:14;;;;;;;53.25;20.75;;;;;;;;;;2345933;57;21054;-76
2022/01/16 03:48:41;;;;;;;60.03;25.08;;;;;;;;;;2344224;57;21120;-76
2022/01/16 03:51:08;;;;;;;56.10;24.40;;;;;;;;;;2344596;57;21671;-76
2022/01/16 03:53:35;;;;;;;50.42;22.20;;;;;;;;;;2344745;57;21034;-76
2022/01/16 03:56:03;;;;;;;64.95;25.30;;;;;;;;;;2345149;57;21037;-76
2022/01/16 03:58:30;;;;;;;54.53;25.08;;;;;;;;;;2344454;57;21061;-76
2022/01/16 04:00:57;;;;;;;62.35;25.85;;;;;;;;;;2344648;57;21030;-76
2022/01/16 04:03:24;;;;;;;72.32;24.23;;;;;;;;;;2345258;57;21616;-76
2022/01/16 04:05:51;;;;;;;60.17;24.67;;;;;;;;;;2345205;57;21045;-76
2022/01/16 04:08:19;;;;;;;92.88;32.55;;;;;;;;;;2345079;57;21057;-77
2022/01/16 04:10:46;;;;;;;52.03;24.37;;;;;;;;;;2344865;57;21528;-76
2022/01/16 04:13:15;;;;;;;72.22;29.45;;;;;;;;;;2345424;57;21057;-77
2022/01/16 04:15:42;;;;;;;59.92;25.12;;;;;;;;;;2345350;57;21022;-76
2022/01/16 04:18:10;;;;;;;57.80;25.85;;;;;;;;;;2345288;57;21038;-76
2022/01/16 04:20:37;;;;;;;64.05;25.52;;;;;;;;;;2344434;57;21552;-76
2022/01/16 04:23:05;;;;;;;60.80;25.77;;;;;;;;;;2345158;57;21088;-76
2022/01/16 04:25:32;;;;;;;60.12;26.08;;;;;;;;;;2345041;57;21573;-76
2022/01/16 04:28:00;;;;;;;62.05;26.40;;;;;;;;;;2345348;57;21041;-76
2022/01/16 04:30:27;;;;;;;78.40;29.12;;;;;;;;;;2344882;57;21062;-76
2022/01/16 04:32:54;;;;;;;81.22;30.33;;;;;;;;;;2344147;57;21168;-76
2022/01/16 04:35:21;;;;;;;61.03;27.75;;;;;;;;;;2589714;51;21059;-74
2022/01/16 04:37:49;;;;;;;55.88;24.87;;;;;;;;;;2595025;53;21186;-77
2022/01/16 04:40:16;;;;;;;60.05;25.95;;;;;;;;;;2364210;56;21080;-76
2022/01/16 04:45:36;;;;;;;74.65;29.75;;;;;;;;;;2337297;56;21063;-74
2022/01/16 04:48:04;;;;;;;66.90;26.67;;;;;;;;;;2375510;56;21040;-74
2022/01/16 04:50:31;;;;;;;67.53;29.27;;;;;;;;;;2374231;56;22162;-74
2022/01/16 04:52:58;;;;;;;68.65;27.83;;;;;;;;;;2373387;56;21056;-74
2022/01/16 04:55:26;;;;;;;81.12;30.15;;;;;;;;;;2374047;56;21056;-76
2022/01/16 04:57:53;;;;;;;61.78;25.70;;;;;;;;;;2374506;56;21037;-74
2022/01/16 05:00:20;;;;;;;56.63;24.95;;;;;;;;;;2373889;56;21056;-74
2022/01/16 05:02:47;;;;;;;59.10;24.63;;;;;;;;;;2374986;56;21527;-74
2022/01/16 05:05:14;;;;;;;51.53;21.42;;;;;;;;;;2374171;56;21048;-76
2022/01/16 05:07:42;;;;;;;63.80;25.95;;;;;;;;;;2374290;56;21087;-77
2022/01/16 05:10:10;;;;;;;58.72;26.10;;;;;;;;;;2374425;56;21128;-77
2022/01/16 05:12:40;;;;;;;50.00;23.05;;;;;;;;;;2374629;56;21056;-76
2022/01/16 05:17:53;;;;;;;46.15;20.98;;;;;;;;;;2374796;56;21040;-76
2022/01/16 05:20:21;;;;;;;49.38;20.80;;;;;;;;;;2374099;56;21064;-76
2022/01/16 05:22:48;;;;;;;43.40;19.87;;;;;;;;;;2374131;56;21052;-75
2022/01/16 05:25:17;;;;;;;45.33;19.92;;;;;;;;;;2374877;56;21048;-74
2022/01/16 05:27:44;;;;;;;48.95;21.92;;;;;;;;;;2374685;56;21136;-74
2022/01/16 05:30:12;;;;;;;50.47;21.95;;;;;;;;;;2374425;56;21531;-74
2022/01/16 05:32:39;;;;;;;46.72;21.23;;;;;;;;;;2374910;56;21071;-75
2022/01/16 05:35:08;;;;;;;54.17;23.12;;;;;;;;;;2627859;52;21648;-75
2022/01/16 05:37:35;;;;;;;58.85;24.02;;;;;;;;;;2374816;56;21532;-75
2022/01/16 05:40:03;;;;;;;62.10;26.65;;;;;;;;;;2374630;56;21080;-75
2022/01/16 05:42:32;;;;;;;70.20;27.70;;;;;;;;;;2374633;56;21120;-74
2022/01/16 05:45:00;;;;;;;63.75;26.45;;;;;;;;;;2374297;56;21105;-75
2022/01/16 05:47:27;;;;;;;70.47;27.25;;;;;;;;;;2374624;56;21048;-74
2022/01/16 05:49:54;;;;;;;64.32;26.27;;;;;;;;;;2373768;56;21099;-74
2022/01/16 05:52:21;;;;;;;65.72;28.77;;;;;;;;;;2374666;56;21124;-75
2022/01/16 05:54:48;;;;;;;65.85;27.15;;;;;;;;;;2374618;56;21040;-75
2022/01/16 05:57:15;;;;;;;69.55;26.58;;;;;;;;;;2628214;52;21319;-76
2022/01/16 05:59:43;;;;;;;64.18;26.45;;;;;;;;;;2373930;56;21698;-75
2022/01/16 06:02:10;;;;;;;62.62;25.77;;;;;;;;;;2374736;56;21048;-76
2022/01/16 06:04:37;;;;;;;53.17;24.55;;;;;;;;;;2374494;56;21080;-75
2022/01/16 06:07:05;;;;;;;65.85;28.12;;;;;;;;;;2374324;56;21530;-75
2022/01/16 06:09:33;;;;;;;61.30;26.42;;;;;;;;;;2374119;56;21036;-75
2022/01/16 06:12:00;;;;;;;60.28;24.52;;;;;;;;;;2374850;56;21561;-75
2022/01/16 06:14:27;;;;;;;67.47;28.85;;;;;;;;;;2374483;56;21040;-75
2022/01/16 06:16:55;;;;;;;71.47;28.27;;;;;;;;;;2628236;52;22159;-75
2022/01/16 06:19:22;;;;;;;74.35;28.38;;;;;;;;;;2374160;56;21049;-74
2022/01/16 06:21:49;;;;;;;66.85;26.15;;;;;;;;;;2374933;56;21040;-76
2022/01/16 06:24:16;;;;;;;65.35;26.33;;;;;;;;;;2627514;52;21191;-75
2022/01/16 06:26:43;;;;;;;67.68;26.77;;;;;;;;;;2374642;56;21581;-75
2022/01/16 06:29:11;;;;;;;64.47;24.85;;;;;;;;;;2627914;52;21030;-74
2022/01/16 06:31:38;;;;;;;61.63;23.35;;;;;;;;;;2374506;56;21049;-75
2022/01/16 06:34:06;;;;;;;61.97;25.60;;;;;;;;;;2373975;56;21600;-74
2022/01/16 06:36:34;;;;;;;65.65;26.23;;;;;;;;;;2374437;56;21024;-74
2022/01/16 06:39:01;;;;;;;67.45;25.45;;;;;;;;;;2374482;56;21131;-75
2022/01/16 06:41:29;;;;;;;68.75;26.23;;;;;;;;;;2627886;52;21123;-75
2022/01/16 06:43:56;;;;;;;61.63;24.52;;;;;;;;;;2374400;56;21199;-75
2022/01/16 06:46:23;;;;;;;60.38;21.77;;;;;;;;;;2374646;56;21175;-75
2022/01/16 06:48:50;;;;;;;65.60;25.83;;;;;;;;;;2627797;52;21529;-75
2022/01/16 06:51:19;;;;;;;71.75;25.95;;;;;;;;;;2374453;56;21055;-75
2022/01/16 06:53:46;;;;;;;64.30;24.85;;;;;;;;;;2374549;56;21036;-75
2022/01/16 06:56:14;;;;;;;68.70;25.55;;;;;;;;;;2374348;56;21096;-73
2022/01/16 06:58:41;;;;;;;64.05;23.30;;;;;;;;;;2374092;56;21144;-74
2022/01/16 07:01:08;;;;;;;56.08;21.95;;;;;;;;;;2374152;56;21354;-74
2022/01/16 07:03:35;;;;;;;54.78;22.90;;;;;;;;;;2374917;56;21044;-73
2022/01/16 07:06:03;;;;;;;57.28;22.25;;;;;;;;;;2374546;56;21048;-74
2022/01/16 07:08:30;;;;;;;51.80;22.30;;;;;;;;;;2374627;56;21045;-75
2022/01/16 07:10:58;;;;;;;59.35;23.05;;;;;;;;;;2373719;56;21036;-74
2022/01/16 07:13:25;;;;;;;53.45;22.05;;;;;;;;;;2628121;52;21632;-73
2022/01/16 07:15:52;;;;;;;54.80;23.40;;;;;;;;;;2374592;56;21028;-73
2022/01/16 07:18:20;;;;;;;68.37;24.55;;;;;;;;;;2374624;56;21040;-74
2022/01/16 07:20:48;;;;;;;50.80;22.00;;;;;;;;;;2374433;56;21052;-74
2022/01/16 07:23:16;;;;;;;52.17;21.23;;;;;;;;;;2374237;56;21040;-73
2022/01/16 07:25:43;;;;;;;48.58;21.17;;;;;;;;;;2374564;56;21167;-74
2022/01/16 07:28:11;;;;;;;57.88;21.92;;;;;;;;;;2374639;56;21045;-74
2022/01/16 07:30:39;;;;;;;64.50;25.12;;;;;;;;;;2373382;56;21059;-73
2022/01/16 07:33:06;;;;;;;58.87;22.58;;;;;;;;;;2374247;56;21121;-75
2022/01/16 07:35:34;;;;;;;79.47;26.37;;;;;;;;;;2373203;56;21024;-73
2022/01/16 07:38:02;;;;;;;65.00;25.62;;;;;;;;;;2374837;56;21143;-74
2022/01/16 07:40:29;;;;;;;63.10;25.90;;;;;;;;;;2374083;56;21524;-74
2022/01/16 07:42:58;;;;;;;78.68;29.50;;;;;;;;;;2375059;56;21036;-74
2022/01/16 07:45:25;;;;;;;71.32;26.73;;;;;;;;;;2374114;56;21395;-74
2022/01/16 07:47:53;;;;;;;69.15;25.90;;;;;;;;;;2374523;56;21029;-75
2022/01/16 07:50:20;;;;;;;65.90;24.42;;;;;;;;;;2373876;56;21155;-73
2022/01/16 07:52:48;;;;;;;70.32;28.00;;;;;;;;;;2374554;56;21123;-73
2022/01/16 07:55:15;;;;;;;80.87;27.95;;;;;;;;;;2375027;56;21107;-74
2022/01/16 07:57:43;;;;;;;78.30;27.50;;;;;;;;;;2627657;52;21033;-73
2022/01/16 08:00:12;;;;;;;72.47;25.90;;;;;;;;;;2374304;56;21522;-74
2022/01/16 08:02:39;;;;;;;70.90;25.23;;;;;;;;;;2374043;56;21152;-74
2022/01/16 08:05:07;;;;;;;65.45;24.92;;;;;;;;;;2374163;56;21045;-72
2022/01/16 08:07:34;;;;;;;58.63;22.00;;;;;;;;;;2374241;56;21037;-73
2022/01/16 08:10:01;;;;;;;74.82;25.98;;;;;;;;;;2374109;56;21178;-72
2022/01/16 08:12:29;;;;;;;69.60;26.50;;;;;;;;;;2374067;56;21634;-73
2022/01/16 08:14:56;;;;;;;66.47;26.20;;;;;;;;;;2373834;56;21119;-72
2022/01/16 08:17:23;;;;;;;55.78;23.17;;;;;;;;;;2373210;56;21136;-72
2022/01/16 08:19:50;;;;;;;60.70;24.05;;;;;;;;;;2374026;56;21171;-71
2022/01/16 08:22:17;;;;;;;59.83;24.70;;;;;;;;;;2373700;56;21704;-72
2022/01/16 08:24:45;;;;;;;61.80;25.52;;;;;;;;;;2627692;52;21025;-71
2022/01/16 08:27:15;;;;;;;66.30;25.40;;;;;;;;;;2372214;56;21551;-75
2022/01/16 08:29:42;;;;;;;61.53;24.95;;;;;;;;;;2373585;56;21339;-73
2022/01/16 08:32:10;;;;;;;78.87;26.60;;;;;;;;;;2373993;56;21067;-73
2022/01/16 08:34:37;;;;;;;77.57;27.60;;;;;;;;;;2372020;56;21052;-74
2022/01/16 08:37:05;;;;;;;79.35;26.45;;;;;;;;;;2372690;56;21129;-75
2022/01/16 08:39:32;;;;;;;64.55;23.40;;;;;;;;;;2373368;56;21116;-73
2022/01/16 08:41:59;;;;;;;71.37;26.37;;;;;;;;;;2373876;56;21151;-73
2022/01/16 08:44:27;;;;;;;84.95;29.37;;;;;;;;;;2373651;56;21044;-73
2022/01/16 08:46:54;;;;;;;69.93;27.58;;;;;;;;;;2374090;56;21124;-73
2022/01/16 08:49:21;;;;;;;81.63;26.40;;;;;;;;;;2373988;56;21131;-73
2022/01/16 08:51:48;;;;;;;71.87;25.25;;;;;;;;;;2374435;56;22246;-74
2022/01/16 08:54:16;;;;;;;76.70;29.02;;;;;;;;;;2374408;56;21098;-75
2022/01/16 08:56:43;;;;;;;73.18;28.25;;;;;;;;;;2374254;56;21834;-75
2022/01/16 08:59:10;;;;;;;84.03;30.05;;;;;;;;;;2373117;56;21028;-74
2022/01/16 09:01:37;;;;;;;84.53;30.80;;;;;;;;;;2374303;56;21064;-74
2022/01/16 09:04:05;;;;;;;89.68;30.37;;;;;;;;;;2374517;56;21044;-75
2022/01/16 09:06:32;;;;;;;95.85;31.60;;;;;;;;;;2372648;56;21139;-75
2022/01/16 09:08:59;;;;;;;93.85;33.15;;;;;;;;;;2374056;56;21060;-75
2022/01/16 09:11:27;;;;;;;72.18;25.52;;;;;;;;;;2372529;56;21044;-76
2022/01/16 09:13:55;;;;;;;89.95;30.17;;;;;;;;;;2374525;56;21072;-76
2022/01/16 09:16:22;;;;;;;91.18;31.27;;;;;;;;;;2374317;56;21606;-79
2022/01/16 09:18:50;;;;;;;108.93;34.65;;;;;;;;;;2373402;56;21051;-77
2022/01/16 09:21:17;;;;;;;92.47;31.60;;;;;;;;;;2373942;56;21594;-76
2022/01/16 09:23:45;;;;;;;95.30;29.98;;;;;;;;;;2374231;56;21445;-76
2022/01/16 09:26:12;;;;;;;80.07;28.25;;;;;;;;;;2374446;56;21298;-74
2022/01/16 09:28:39;;;;;;;86.78;29.85;;;;;;;;;;2374398;56;21108;-75
2022/01/16 09:31:06;;;;;;;90.28;31.30;;;;;;;;;;2374026;56;21527;-74
2022/01/16 09:33:34;;;;;;;82.78;26.85;;;;;;;;;;2373222;56;21052;-74
2022/01/16 09:36:02;;;;;;;93.55;30.62;;;;;;;;;;2372410;56;21060;-75
2022/01/16 09:38:29;;;;;;;85.07;29.10;;;;;;;;;;2372226;56;21060;-74
2022/01/16 09:43:32;;;;;;;102.55;38.30;;;;;;;;;;2332994;57;27847;-76
2022/01/16 09:46:00;;;;;;;87.28;35.17;;;;;;;;;;2345062;57;21089;-75
2022/01/16 09:48:28;;;;;;;81.37;31.75;;;;;;;;;;2592895;52;21058;-75
2022/01/16 09:50:55;;;;;;;85.90;32.30;;;;;;;;;;2369114;56;21111;-74
2022/01/16 09:53:23;;;;;;;85.82;29.73;;;;;;;;;;2373328;56;21044;-74
2022/01/16 09:55:50;;;;;;;91.05;33.45;;;;;;;;;;2372273;56;21043;-75
2022/01/16 09:58:18;;;;;;;94.35;32.65;;;;;;;;;;2625416;52;21197;-75
2022/01/16 10:00:45;;;;;;;88.00;29.58;;;;;;;;;;2372911;56;21586;-76
2022/01/16 10:03:32;;;;;;;101.80;35.80;;;;;;;;;;2371793;56;21106;-75
2022/01/16 10:06:07;;;;;;;88.40;31.23;;;;;;;;;;2372288;56;21657;-75
2022/01/16 10:08:34;;;;;;;97.70;32.63;;;;;;;;;;2372328;56;21063;-74
2022/01/16 10:11:19;;;;;;;99.10;31.75;;;;;;;;;;2625566;52;21119;-78
2022/01/16 10:13:56;;;;;;;87.37;30.40;;;;;;;;;;2625244;52;21056;-75
2022/01/16 10:16:26;;;;;;;81.63;29.23;;;;;;;;;;2372563;56;21131;-74
2022/01/16 10:18:53;;;;;;;81.80;29.25;;;;;;;;;;2372842;56;21043;-73
2022/01/16 10:21:32;;;;;;;93.37;29.10;;;;;;;;;;2374283;56;21151;-74
2022/01/16 10:23:59;;;;;;;95.80;32.38;;;;;;;;;;2373710;56;21035;-75
2022/01/16 10:26:28;;;;;;;98.28;31.95;;;;;;;;;;2373968;56;21594;-73
2022/01/16 10:28:55;;;;;;;82.80;27.05;;;;;;;;;;2373291;56;21052;-74
2022/01/16 10:31:25;;;;;;;83.40;27.27;;;;;;;;;;2374564;56;21024;-73
2022/01/16 10:34:11;;;;;;;97.57;30.27;;;;;;;;;;2375343;56;21035;-73
2022/01/16 10:36:39;;;;;;;96.57;31.95;;;;;;;;;;2376546;58;21108;-83
2022/01/16 10:39:08;;;;;;;74.07;26.83;;;;;;;;;;2376054;58;21203;-82
2022/01/16 10:41:35;;;;;;;92.88;30.62;;;;;;;;;;2167144;62;21330;-82
2022/01/16 10:44:03;;;;;;;86.18;29.65;;;;;;;;;;2375879;58;21115;-82
2022/01/16 10:46:30;;;;;;;76.85;27.17;;;;;;;;;;2374289;58;21180;-81
2022/01/16 10:49:13;;;;;;;83.70;28.92;;;;;;;;;;2374455;58;21141;-83
2022/01/16 10:51:40;;;;;;;;;;;;;;;;;;2379353;58;21192;-81
2022/01/16 10:54:26;;;;;;;91.12;29.75;;;;;;;;;;2167090;62;20193;-81
2022/01/16 10:56:53;;;;;;;70.90;24.83;;;;;;;;;;2167124;62;21084;-82
2022/01/16 10:59:24;;;;;;;84.20;27.25;;;;;;;;;;2375611;58;21104;-81
2022/01/16 11:02:06;;;;;;;79.90;27.23;;;;;;;;;;2167409;62;21084;-81
2022/01/16 11:04:34;;;;;;;82.72;28.02;;;;;;;;;;2376251;58;21183;-81
2022/01/16 11:07:02;;;;;;;85.78;28.00;;;;;;;;;;2167375;62;21088;-83
2022/01/16 11:09:31;;;;;;;75.18;27.77;;;;;;;;;;2167055;62;21096;-82
2022/01/16 11:11:59;;;;;;;71.30;26.15;;;;;;;;;;2167211;62;21163;-83
2022/01/16 11:14:27;;;;;;;77.07;27.45;;;;;;;;;;2375935;58;21137;-83
2022/01/16 11:16:55;;;;;;;74.93;26.48;;;;;;;;;;2167534;62;21169;-83
2022/01/16 11:19:24;;;;;;;80.82;26.37;;;;;;;;;;2375833;58;21112;-82
2022/01/16 11:21:53;;;;;;;79.87;26.75;;;;;;;;;;2375769;58;21160;-82
2022/01/16 11:24:34;;;;;;;68.82;23.12;;;;;;;;;;2167301;62;21191;-83
2022/01/16 11:27:01;;;;;;;78.95;28.15;;;;;;;;;;2167776;62;21095;-83
2022/01/16 11:29:29;;;;;;;68.70;22.17;;;;;;;;;;2167262;62;21255;-82
2022/01/16 11:31:58;;;;;;;63.83;22.52;;;;;;;;;;2167387;62;21092;-82
2022/01/16 11:34:27;;;;;;;64.57;24.37;;;;;;;;;;2376137;58;21224;-81
2022/01/16 11:36:56;;;;;;;53.60;19.83;;;;;;;;;;2375867;58;21081;-81
2022/01/16 11:39:23;;;;;;;65.30;24.17;;;;;;;;;;2166596;62;21076;-81
2022/01/16 11:41:52;;;;;;;62.58;22.73;;;;;;;;;;2375367;58;21112;-82
2022/01/16 11:44:23;;;;;;;65.00;22.75;;;;;;;;;;2375722;58;21179;-80
2022/01/16 11:46:52;;;;;;;51.88;20.80;;;;;;;;;;2165115;62;21727;-82
2022/01/16 11:49:31;;;;;;;57.15;21.42;;;;;;;;;;2166301;62;21124;-83
2022/01/16 11:52:04;;;;;;;58.47;21.30;;;;;;;;;;2167088;62;21119;-81
2022/01/16 11:54:32;;;;;;;45.85;17.48;;;;;;;;;;2371638;58;21133;-76
2022/01/16 11:57:01;;;;;;;53.45;19.83;;;;;;;;;;2371031;58;21095;-81
2022/01/16 11:59:29;;;;;;;55.85;19.95;;;;;;;;;;2166197;62;21121;-82
2022/01/16 12:01:57;;;;;;;47.03;18.90;;;;;;;;;;2375150;58;21112;-82
2022/01/16 12:04:42;;;;;;;59.10;21.95;;;;;;;;;;2375493;58;21076;-82
2022/01/16 12:07:28;;;;;;;52.72;20.23;;;;;;;;;;2166038;62;21279;-83
2022/01/16 12:09:57;;;;;;;54.53;20.55;;;;;;;;;;2375300;58;21104;-83
2022/01/16 12:12:37;;;;;;;53.67;19.08;;;;;;;;;;2167312;62;21175;-83
2022/01/16 12:15:05;;;;;;;49.20;19.55;;;;;;;;;;2375300;58;21176;-83
2022/01/16 12:17:33;;;;;;;50.72;20.85;;;;;;;;;;2167184;62;21089;-83
2022/01/16 12:20:00;;;;;;;48.40;19.05;;;;;;;;;;2375234;58;21168;-82
2022/01/16 12:22:41;;;;;;;51.80;20.30;;;;;;;;;;2167000;62;21668;-82
2022/01/16 12:25:10;;;;;;;55.00;21.62;;;;;;;;;;2167015;62;21168;-82
2022/01/16 12:27:44;;;;;;;55.28;21.02;;;;;;;;;;2375995;58;21161;-82
2022/01/16 12:30:34;;;;;;;69.53;24.15;;;;;;;;;;2167489;62;21088;-83
2022/01/16 12:36:09;;;;;;;62.03;22.95;;;;;;;;;;2354844;57;23006;-74
2022/01/16 12:38:37;;;;;;;67.62;26.05;;;;;;;;;;2347073;57;21029;-76
2022/01/16 12:41:05;;;;;;;65.45;24.83;;;;;;;;;;2563642;51;21079;-76
2022/01/16 12:43:41;;;;;;;59.35;23.40;;;;;;;;;;2421788;55;21042;-77
2022/01/16 12:46:09;;;;;;;70.68;25.88;;;;;;;;;;2421789;55;21157;-76
2022/01/16 12:48:40;;;;;;;75.35;26.12;;;;;;;;;;2420796;55;21019;-77
2022/01/16 12:51:08;;;;;;;65.82;27.08;;;;;;;;;;2418205;55;21511;-77
2022/01/16 12:53:41;;;;;;;66.62;25.92;;;;;;;;;;2419918;55;21036;-78
2022/01/16 12:56:22;;;;;;;64.12;22.55;;;;;;;;;;2420607;55;21201;-75
2022/01/16 12:58:50;;;;;;;66.15;26.23;;;;;;;;;;2684355;51;21067;-77
2022/01/16 13:01:17;;;;;;;72.85;27.65;;;;;;;;;;2420850;55;21103;-75
2022/01/16 13:03:45;;;;;;;74.68;26.02;;;;;;;;;;2420586;55;21047;-75
2022/01/16 13:06:20;;;;;;;74.68;26.33;;;;;;;;;;2419787;55;21027;-75
2022/01/16 13:09:12;;;;;;;72.85;28.17;;;;;;;;;;2416570;55;21135;-75
2022/01/16 13:11:41;;;;;;;77.70;29.20;;;;;;;;;;2676667;51;21051;-76
2022/01/16 13:14:09;;;;;;;81.82;30.08;;;;;;;;;;2420266;55;21027;-77
2022/01/16 13:16:38;;;;;;;73.85;26.27;;;;;;;;;;2683926;51;21126;-77
2022/01/16 13:19:11;;;;;;;88.10;30.60;;;;;;;;;;2419571;55;21028;-78
2022/01/16 13:21:48;;;;;;;68.10;26.98;;;;;;;;;;2420026;55;21623;-77
2022/01/16 13:24:26;;;;;;;73.18;27.83;;;;;;;;;;2420511;55;21139;-77
2022/01/16 13:26:53;;;;;;;78.30;27.90;;;;;;;;;;2420128;55;21573;-76
2022/01/16 13:29:21;;;;;;;81.95;31.27;;;;;;;;;;2682691;51;21047;-76
2022/01/16 13:31:49;;;;;;;70.20;26.77;;;;;;;;;;2420604;55;21059;-78
2022/01/16 13:34:18;;;;;;;78.28;28.98;;;;;;;;;;2684350;51;21550;-79
2022/01/16 13:36:52;;;;;;;82.43;28.77;;;;;;;;;;2421331;55;21028;-80
2022/01/16 13:39:36;;;;;;;79.37;31.48;;;;;;;;;;2421047;55;21055;-82
2022/01/16 13:42:38;;;;;;;85.53;30.20;;;;;;;;;;2420118;55;21602;-76
2022/01/16 13:45:16;;;;;;;75.82;30.77;;;;;;;;;;2399293;55;21024;-76
2022/01/16 13:47:50;;;;;;;76.37;27.45;;;;;;;;;;2419478;55;21067;-77
2022/01/16 13:50:18;;;;;;;83.18;31.80;;;;;;;;;;2418253;55;21610;-76
2022/01/16 13:52:52;;;;;;;75.57;28.17;;;;;;;;;;2419541;55;22245;-77
2022/01/16 13:55:19;;;;;;;77.95;29.48;;;;;;;;;;2419825;55;21094;-77
2022/01/16 13:57:46;;;;;;;81.60;30.80;;;;;;;;;;2419376;55;21052;-77
2022/01/16 14:00:15;;;;;;;83.82;30.65;;;;;;;;;;2419040;55;21044;-76
2022/01/16 14:02:42;;;;;;;80.00;29.52;;;;;;;;;;2419728;55;21107;-76
2022/01/16 14:05:21;;;;;;;98.03;32.95;;;;;;;;;;2682707;51;21528;-77
2022/01/16 14:07:48;;;;;;;89.40;30.75;;;;;;;;;;2419658;55;21068;-75
2022/01/16 14:10:35;;;;;;;75.85;28.10;;;;;;;;;;2419374;55;21040;-76
2022/01/16 14:13:02;;;;;;;78.97;32.00;;;;;;;;;;2420152;55;21550;-80
2022/01/16 14:15:29;;;;;;;89.68;33.10;;;;;;;;;;2419813;55;21055;-77
2022/01/16 14:18:05;;;;;;;85.93;32.33;;;;;;;;;;2681798;51;21040;-77
2022/01/16 14:23:24;;;;;;;77.93;30.15;;;;;;;;;;2414325;55;21028;-77
2022/01/16 14:25:52;;;;;;;76.90;31.90;;;;;;;;;;2682920;51;21052;-77
2022/01/16 14:28:19;;;;;;;82.95;33.08;;;;;;;;;;2682656;51;21031;-77
2022/01/16 14:30:49;;;;;;;79.53;28.80;;;;;;;;;;2418942;55;21060;-76
2022/01/16 14:33:17;;;;;;;77.90;27.67;;;;;;;;;;2419787;55;21040;-77
2022/01/16 14:35:44;;;;;;;71.53;27.25;;;;;;;;;;2418950;55;21637;-76
2022/01/16 14:38:17;;;;;;;84.22;32.30;;;;;;;;;;2419262;55;21052;-76
2022/01/16 14:40:43;;;;;;;;;;;;;;;;;;2422465;55;21052;-76
2022/01/16 14:43:16;;;;;;;87.93;31.33;;;;;;;;;;2683112;51;20142;-75
2022/01/16 14:45:43;;;;;;;;;;;;;;;;;;2423267;55;21119;-76
2022/01/16 14:48:10;;;;;;;83.93;32.45;;;;;;;;;;2418699;55;20336;-76
2022/01/16 14:50:37;;;;;;;85.50;31.60;;;;;;;;;;2419196;55;21048;-77
2022/01/16 14:53:04;;;;;;;77.15;30.15;;;;;;;;;;2418284;55;21040;-76
2022/01/16 14:55:32;;;;;;;86.95;35.60;;;;;;;;;;2417328;55;21055;-79
2022/01/16 14:57:59;;;;;;;77.07;31.05;;;;;;;;;;2418849;55;21043;-77
2022/01/16 15:00:26;;;;;;;76.10;30.25;;;;;;;;;;2682325;51;21118;-76
2022/01/16 15:02:53;;;;;;;84.13;32.33;;;;;;;;;;2419158;55;21049;-77
2022/01/16 15:05:20;;;;;;;85.20;32.60;;;;;;;;;;2419529;55;21047;-75
2022/01/16 15:07:48;;;;;;;84.45;33.30;;;;;;;;;;2683152;51;21376;-76
2022/01/16 15:10:15;;;;;;;94.93;34.38;;;;;;;;;;2419258;55;21043;-76
2022/01/16 15:12:42;;;;;;;73.30;29.27;;;;;;;;;;2419296;55;21322;-76
2022/01/16 15:15:10;;;;;;;90.95;32.53;;;;;;;;;;2419294;55;21233;-77
2022/01/16 15:17:45;;;;;;;72.20;27.75;;;;;;;;;;2419401;55;21035;-77
2022/01/16 15:20:21;;;;;;;89.00;32.45;;;;;;;;;;2419339;55;21032;-77
2022/01/16 15:22:50;;;;;;;86.10;31.77;;;;;;;;;;2419726;55;21119;-75